Time;durP1;ratioP1;P1;durP2;ratioP2;P2;SDS_P1;SDS_P2;PMS_P1;PMS_P2;Temp;Humidity;BMP_temperature;BMP_pressure;BME280_temperature;BME280_humidity;BME280_pressure;Samples;Min_cycle;Max_cycle;Signal;HPM_P1;HPM_P2
2022/05/08 00:02:20;;;;;;;1.75;1.10;;;;;;;22.47;49.84;99310.56;5111272;28;20070;-63
2022/05/08 00:04:49;;;;;;;1.55;1.10;;;;;;;22.38;49.66;99296.16;5109912;28;20498;-63
2022/05/08 00:07:16;;;;;;;1.35;1.00;;;;;;;22.38;50.02;99300.94;5111200;28;20040;-62
2022/05/08 00:09:42;;;;;;;1.40;1.00;;;;;;;22.32;50.06;99292.13;5111081;28;20047;-63
2022/05/08 00:12:09;;;;;;;1.40;1.00;;;;;;;22.33;50.05;99301.28;5110965;28;20040;-62
2022/05/08 00:14:35;;;;;;;1.70;1.20;;;;;;;22.31;49.96;99306.47;5111253;28;20059;-63
2022/05/08 00:17:00;;;;;;;1.48;1.00;;;;;;;22.28;49.94;99305.22;5110901;28;20130;-63
2022/05/08 00:19:25;;;;;;;1.73;1.20;;;;;;;22.27;50.11;99312.00;5110912;28;20052;-63
2022/05/08 00:21:51;;;;;;;1.60;1.00;;;;;;;22.25;50.28;99304.03;5110980;28;20100;-63
2022/05/08 00:24:16;;;;;;;2.00;1.10;;;;;;;22.24;49.81;99304.44;5110978;28;20046;-63
2022/05/08 00:26:42;;;;;;;1.65;1.15;;;;;;;22.23;49.77;99306.41;5111027;28;20104;-63
2022/05/08 00:29:10;;;;;;;1.55;1.08;;;;;;;22.21;49.89;99305.19;5110174;28;20059;-63
2022/05/08 00:31:36;;;;;;;1.60;1.10;;;;;;;22.23;49.72;99311.19;5110688;28;20560;-63
2022/05/08 00:34:03;;;;;;;1.90;1.20;;;;;;;22.21;49.81;99305.19;5110884;28;20035;-63
2022/05/08 00:36:28;;;;;;;1.48;1.10;;;;;;;22.21;49.84;99299.63;5110625;28;20051;-62
2022/05/08 00:38:55;;;;;;;1.63;1.10;;;;;;;22.18;49.90;99312.34;5110707;28;20570;-63
2022/05/08 00:41:21;;;;;;;1.60;1.10;;;;;;;22.14;50.16;99300.34;5110638;28;20052;-63
2022/05/08 00:43:46;;;;;;;1.70;1.20;;;;;;;22.16;50.00;99308.34;5110725;28;20058;-63
2022/05/08 00:46:13;;;;;;;1.50;1.00;;;;;;;22.15;49.70;99301.97;5110753;28;20043;-63
2022/05/08 00:48:39;;;;;;;1.83;1.20;;;;;;;22.14;49.86;99305.94;5110604;28;20061;-63
2022/05/08 00:51:08;;;;;;;1.95;1.27;;;;;;;22.14;49.61;99303.16;5110451;28;20059;-63
2022/05/08 00:53:40;;;;;;;1.33;1.00;;;;;;;22.11;49.39;99303.94;5108436;28;20043;-63
2022/05/08 00:56:07;;;;;;;1.95;1.35;;;;;;;22.11;49.73;99303.13;5108729;28;20071;-63
2022/05/08 00:58:34;;;;;;;1.67;1.15;;;;;;;22.11;49.63;99308.69;5110471;28;20047;-63
2022/05/08 01:01:00;;;;;;;1.80;1.23;;;;;;;22.09;49.63;99311.09;5108939;28;20040;-63
2022/05/08 01:03:25;;;;;;;1.77;1.20;;;;;;;22.06;49.85;99307.03;5109267;28;20048;-63
2022/05/08 01:05:55;;;;;;;1.55;1.10;;;;;;;22.08;50.12;99310.28;5110179;28;20388;-63
2022/05/08 01:08:25;;;;;;;1.48;1.10;;;;;;;22.07;49.93;99300.28;5126288;27;20051;-63
2022/05/08 01:10:54;;;;;;;1.80;1.20;;;;;;;22.07;49.82;99302.25;5129568;28;20129;-63
2022/05/08 01:13:20;;;;;;;1.67;1.20;;;;;;;22.07;49.70;99299.47;5130801;28;20051;-63
2022/05/08 01:15:47;;;;;;;1.90;1.30;;;;;;;22.05;49.71;99294.28;5129570;28;20091;-63
2022/05/08 01:18:14;;;;;;;1.70;1.17;;;;;;;22.07;49.56;99291.91;5128946;28;20043;-63
2022/05/08 01:20:41;;;;;;;1.73;1.23;;;;;;;22.07;49.52;99297.50;5130598;28;20043;-63
2022/05/08 01:23:07;;;;;;;1.27;1.00;;;;;;;22.06;49.65;99290.31;5128743;28;20062;-63
2022/05/08 01:25:34;;;;;;;1.33;1.00;;;;;;;22.05;49.45;99294.28;5129085;28;20055;-63
2022/05/08 01:28:03;;;;;;;1.88;1.27;;;;;;;22.06;49.66;99295.09;5130508;28;20039;-63
2022/05/08 01:30:29;;;;;;;1.98;1.20;;;;;;;22.08;49.38;99292.75;5130418;28;20169;-63
2022/05/08 01:32:55;;;;;;;1.80;1.20;;;;;;;22.10;49.30;99291.19;5129747;28;20114;-63
2022/05/08 01:35:20;;;;;;;2.10;1.17;;;;;;;22.15;49.45;99292.84;5110241;28;20042;-63
2022/05/08 01:37:46;;;;;;;1.70;1.10;;;;;;;22.16;49.03;99294.41;5130362;28;20058;-63
2022/05/08 01:40:12;;;;;;;1.60;1.13;;;;;;;22.21;49.22;99296.81;5130296;28;20051;-63
2022/05/08 01:42:37;;;;;;;1.58;1.08;;;;;;;22.22;49.09;99292.88;5129042;28;20062;-63
2022/05/08 01:45:03;;;;;;;1.60;1.20;;;;;;;22.24;48.94;99296.06;5096989;28;20123;-63
2022/05/08 01:50:13;;;;;;;1.38;1.10;;;;;;;22.29;49.01;99294.88;5130334;28;20047;-63
2022/05/08 01:52:38;;;;;;;1.45;1.00;;;;;;;22.26;49.04;99299.25;5130431;28;20430;-63
2022/05/08 01:55:04;;;;;;;2.22;1.13;;;;;;;22.27;48.86;99300.84;5129851;28;20067;-62
2022/05/08 01:57:29;;;;;;;1.23;1.00;;;;;;;22.27;48.69;99298.06;5130174;28;20050;-63
2022/05/08 01:59:55;;;;;;;1.23;0.90;;;;;;;22.28;48.74;99302.44;5130108;28;20054;-63
2022/05/08 02:02:20;;;;;;;1.77;1.10;;;;;;;22.29;48.89;99292.94;5130230;28;20351;-63
2022/05/08 02:04:46;;;;;;;1.65;1.20;;;;;;;22.29;48.66;99301.28;5130097;28;20367;-63
2022/05/08 02:07:11;;;;;;;1.58;1.10;;;;;;;22.30;48.73;99294.53;5130175;28;20049;-63
2022/05/08 02:09:37;;;;;;;1.42;1.00;;;;;;;22.32;48.78;99296.91;5130293;28;20061;-63
2022/05/08 02:12:04;;;;;;;2.08;1.17;;;;;;;22.31;48.65;99298.09;5130093;28;20043;-63
2022/05/08 02:14:29;;;;;;;1.50;1.20;;;;;;;22.31;48.60;99303.69;5130050;28;20421;-63
2022/05/08 02:16:54;;;;;;;1.48;1.10;;;;;;;22.32;48.92;99302.50;5129592;28;20039;-63
2022/05/08 02:19:20;;;;;;;2.08;1.20;;;;;;;22.28;48.58;99296.88;5130460;27;20209;-63
2022/05/08 02:21:45;;;;;;;1.77;1.10;;;;;;;22.31;48.44;99301.69;5133435;28;20035;-63
2022/05/08 02:24:11;;;;;;;1.23;1.00;;;;;;;22.32;48.80;99303.28;5133117;28;20059;-63
2022/05/08 02:26:36;;;;;;;1.55;1.00;;;;;;;22.33;48.72;99302.09;5133444;28;20082;-63
2022/05/08 02:29:01;;;;;;;1.48;1.00;;;;;;;22.33;48.84;99302.09;5133209;28;20040;-63
2022/05/08 02:31:27;;;;;;;2.13;1.05;;;;;;;22.35;48.73;99296.13;5133213;28;20126;-63
2022/05/08 02:33:52;;;;;;;1.23;0.80;;;;;;;22.33;48.65;99293.75;5114815;28;20042;-63
2022/05/08 02:36:18;;;;;;;1.58;1.23;;;;;;;22.33;48.84;99299.31;5132973;28;20041;-63
2022/05/08 02:38:44;;;;;;;1.60;1.05;;;;;;;22.34;48.71;99302.91;5133258;28;20066;-63
2022/05/08 02:41:09;;;;;;;1.60;1.08;;;;;;;22.33;48.85;99295.72;5132948;28;20044;-63
2022/05/08 02:43:34;;;;;;;1.58;1.10;;;;;;;22.32;48.80;99306.06;5132008;28;20054;-63
2022/05/08 02:46:02;;;;;;;1.50;1.10;;;;;;;22.33;48.60;99293.75;5130660;28;20042;-63
2022/05/08 02:48:27;;;;;;;1.95;1.00;;;;;;;22.30;48.60;99294.53;5131895;28;20558;-63
2022/05/08 02:50:53;;;;;;;1.40;1.08;;;;;;;22.32;48.41;99303.28;5133045;28;20119;-63
2022/05/08 02:53:20;;;;;;;1.50;1.10;;;;;;;22.31;48.63;99293.34;5132935;28;20624;-62
2022/05/08 02:58:32;;;;;;;1.75;1.13;;;;;;;22.29;48.53;99294.88;5132964;28;20050;-63
2022/05/08 03:00:59;;;;;;;1.67;1.08;;;;;;;22.33;48.22;99292.94;5131665;28;20081;-63
2022/05/08 03:03:25;;;;;;;1.30;0.93;;;;;;;22.33;48.58;99295.72;5132725;28;20075;-63
2022/05/08 03:05:51;;;;;;;1.50;1.00;;;;;;;22.32;48.20;99291.34;5132867;28;20611;-63
2022/05/08 03:08:17;;;;;;;1.33;1.05;;;;;;;22.32;48.46;99297.72;5132741;28;20062;-63
2022/05/08 03:13:29;;;;;;;1.70;1.00;;;;;;;22.30;48.42;99300.09;5132709;28;20096;-63
2022/05/08 03:15:55;;;;;;;1.50;1.10;;;;;;;22.32;48.39;99292.13;5132794;28;20717;-63
2022/05/08 03:18:20;;;;;;;1.48;1.00;;;;;;;22.32;48.19;99296.91;5132699;28;20055;-63
2022/05/08 03:20:46;;;;;;;1.65;1.17;;;;;;;22.33;48.14;99292.94;5132274;28;20122;-63
2022/05/08 03:23:12;;;;;;;1.80;1.15;;;;;;;22.33;48.06;99293.75;5132516;28;20071;-63
2022/05/08 03:25:37;;;;;;;1.20;0.90;;;;;;;22.33;48.28;99290.16;5132505;28;20126;-63
2022/05/08 03:28:03;;;;;;;1.63;1.20;;;;;;;22.32;48.13;99291.34;5132433;28;20126;-63
2022/05/08 03:30:28;;;;;;;1.80;1.10;;;;;;;22.31;48.09;99284.19;5131682;27;20058;-63
2022/05/08 03:32:56;;;;;;;1.33;0.90;;;;;;;22.32;48.20;99292.13;5132170;28;20082;-63
2022/05/08 03:35:21;;;;;;;1.42;1.00;;;;;;;22.31;48.15;99279.41;5132349;28;20043;-62
2022/05/08 03:37:47;;;;;;;1.33;1.00;;;;;;;22.31;47.93;99293.34;5132335;28;20050;-62
2022/05/08 03:40:12;;;;;;;1.30;1.00;;;;;;;22.32;48.41;99294.13;5131966;28;20043;-62
2022/05/08 03:42:38;;;;;;;1.70;1.02;;;;;;;22.33;48.39;99284.56;5132096;28;20062;-62
2022/05/08 03:45:03;;;;;;;1.40;1.00;;;;;;;22.32;48.19;99282.97;5132271;28;20575;-62
2022/05/08 03:47:29;;;;;;;1.80;1.20;;;;;;;22.31;48.23;99284.19;5132146;28;20036;-62
2022/05/08 03:49:54;;;;;;;1.50;1.00;;;;;;;22.31;48.11;99284.97;5131894;28;20047;-63
2022/05/08 03:52:19;;;;;;;1.20;0.90;;;;;;;22.32;48.17;99292.13;5131870;28;20459;-63
2022/05/08 03:54:45;;;;;;;1.45;1.10;;;;;;;22.32;47.96;99282.97;5131646;28;20126;-63
2022/05/08 03:57:11;;;;;;;1.38;0.93;;;;;;;22.31;48.30;99284.97;5131946;28;20068;-63
2022/05/08 03:59:36;;;;;;;1.35;1.00;;;;;;;22.32;48.31;99283.78;5132058;28;20609;-63
2022/05/08 04:02:02;;;;;;;1.27;1.00;;;;;;;22.32;47.96;99285.78;5132094;28;20047;-63
2022/05/08 04:04:27;;;;;;;1.55;1.00;;;;;;;22.32;48.02;99297.72;5131770;28;20506;-63
2022/05/08 04:06:52;;;;;;;1.50;1.10;;;;;;;22.31;47.90;99289.75;5131867;28;20577;-62
2022/05/08 04:09:18;;;;;;;1.70;1.08;;;;;;;22.31;47.94;99296.13;5131776;28;20071;-63
2022/05/08 04:11:43;;;;;;;1.25;0.80;;;;;;;22.46;47.58;99300.59;5131636;28;20051;-63
2022/05/08 04:14:09;;;;;;;1.27;0.90;;;;;;;22.74;47.01;99294.38;5131662;28;20043;-63
2022/05/08 04:16:35;;;;;;;1.50;1.10;;;;;;;22.73;46.86;99294.78;5131587;28;20039;-63
2022/05/08 04:19:00;;;;;;;1.80;1.20;;;;;;;22.63;46.96;99292.72;5131499;28;20391;-63
2022/05/08 04:21:26;;;;;;;1.45;1.00;;;;;;;22.58;47.24;99305.06;5131412;28;20517;-63
2022/05/08 04:26:36;;;;;;;1.63;1.10;;;;;;;22.47;47.29;99302.19;5131677;28;20049;-63
2022/05/08 04:29:03;;;;;;;1.40;1.00;;;;;;;22.44;47.65;99310.53;5131296;28;20118;-63
2022/05/08 04:31:29;;;;;;;1.73;1.00;;;;;;;22.40;47.54;99313.28;5131263;28;20047;-63
2022/05/08 04:33:54;;;;;;;1.70;1.10;;;;;;;22.37;47.42;99311.28;5131314;28;20494;-63
2022/05/08 04:36:20;;;;;;;1.30;1.00;;;;;;;22.37;47.45;99316.88;5131169;28;20039;-63
2022/05/08 04:38:46;;;;;;;1.40;1.00;;;;;;;22.36;47.48;99315.28;5131237;28;20043;-63
2022/05/08 04:41:11;;;;;;;1.60;1.10;;;;;;;22.36;47.55;99315.28;5131113;28;20451;-63
2022/05/08 04:43:37;;;;;;;1.40;1.00;;;;;;;22.36;47.30;99325.59;5130220;27;20040;-63
2022/05/08 04:46:02;;;;;;;1.45;1.00;;;;;;;22.36;47.42;99326.41;5131189;28;20514;-63
2022/05/08 04:48:28;;;;;;;1.77;1.10;;;;;;;22.34;47.65;99333.53;5131126;28;20493;-63
2022/05/08 04:50:54;;;;;;;2.00;0.93;;;;;;;22.34;47.67;99328.78;5131149;28;20039;-63
2022/05/08 04:53:19;;;;;;;1.25;0.90;;;;;;;22.34;47.43;99334.34;5130954;28;20446;-63
2022/05/08 04:55:44;;;;;;;1.20;0.95;;;;;;;22.33;47.62;99340.31;5131011;28;20039;-63
2022/05/08 04:58:10;;;;;;;1.80;1.10;;;;;;;22.32;47.41;99336.72;5130942;28;20180;-63
2022/05/08 05:00:36;;;;;;;1.60;1.00;;;;;;;22.32;47.60;99339.50;5130775;28;20066;-63
2022/05/08 05:03:02;;;;;;;1.48;1.00;;;;;;;22.32;47.46;99352.66;5130697;28;20458;-63
2022/05/08 05:05:27;;;;;;;1.50;1.10;;;;;;;22.32;47.71;99342.28;5130925;28;20054;-63
2022/05/08 05:07:53;;;;;;;1.20;0.90;;;;;;;22.32;47.47;99352.66;5130810;28;20066;-63
2022/05/08 05:10:19;;;;;;;1.48;1.00;;;;;;;22.34;47.67;99358.63;5130792;28;20044;-62
2022/05/08 05:12:45;;;;;;;1.38;1.00;;;;;;;22.32;47.60;99347.06;5130874;28;20054;-62
2022/05/08 05:15:11;;;;;;;2.03;1.00;;;;;;;22.30;47.54;99353.03;5130651;28;20066;-62
2022/05/08 05:17:36;;;;;;;1.58;1.08;;;;;;;22.30;47.48;99350.25;5130501;28;20046;-62
2022/05/08 05:20:03;;;;;;;1.48;1.00;;;;;;;22.27;47.49;99350.22;5130602;28;20300;-62
2022/05/08 05:22:29;;;;;;;1.40;1.10;;;;;;;22.27;47.53;99361.34;5130456;28;20043;-63
2022/05/08 05:24:57;;;;;;;1.30;1.00;;;;;;;22.30;47.60;99357.81;5130438;28;20039;-63
2022/05/08 05:27:23;;;;;;;1.58;1.13;;;;;;;22.30;47.56;99358.63;5130693;28;20051;-62
2022/05/08 05:29:49;;;;;;;1.35;1.00;;;;;;;22.30;47.36;99364.19;5130527;28;20046;-63
2022/05/08 05:32:14;;;;;;;1.58;1.10;;;;;;;22.30;47.26;99366.97;5130582;28;20048;-62
2022/05/08 05:34:40;;;;;;;1.58;1.10;;;;;;;22.29;47.58;99368.16;5130433;28;20047;-62
2022/05/08 05:37:06;;;;;;;1.50;1.10;;;;;;;22.32;47.34;99361.00;5130365;28;20126;-62
2022/05/08 05:39:32;;;;;;;1.15;0.95;;;;;;;22.28;47.48;99360.97;5130370;28;20077;-63
2022/05/08 05:41:57;;;;;;;1.90;1.20;;;;;;;22.29;47.73;99362.59;5130014;28;20039;-62
2022/05/08 05:44:23;;;;;;;1.80;1.10;;;;;;;22.29;47.50;99361.75;5130179;28;20422;-63
2022/05/08 05:49:32;;;;;;;1.15;0.80;;;;;;;22.29;47.57;99362.59;5130699;28;20095;-63
2022/05/08 05:51:58;;;;;;;1.52;1.10;;;;;;;22.31;47.80;99363.00;5130393;28;20130;-63
2022/05/08 05:54:26;;;;;;;1.52;1.05;;;;;;;22.30;47.70;99369.75;5132409;27;20070;-62
2022/05/08 05:56:52;;;;;;;1.70;1.20;;;;;;;22.30;47.82;99369.75;5133841;28;20040;-62
2022/05/08 05:59:17;;;;;;;1.48;1.08;;;;;;;22.31;47.99;99374.13;5133744;28;20039;-62
2022/05/08 06:01:43;;;;;;;1.30;0.98;;;;;;;22.30;47.99;99368.97;5133500;28;20046;-63
2022/05/08 06:04:09;;;;;;;1.38;1.00;;;;;;;22.30;48.07;99378.13;5133527;28;20134;-63
2022/05/08 06:06:34;;;;;;;1.30;1.00;;;;;;;22.31;47.63;99373.34;5133661;28;20039;-63
2022/05/08 06:09:00;;;;;;;2.33;1.33;;;;;;;22.34;47.74;99378.94;5133702;28;20123;-63
2022/05/08 06:11:25;;;;;;;2.35;1.35;;;;;;;22.33;47.80;99371.75;5133688;28;20039;-63
2022/05/08 06:13:51;;;;;;;2.00;1.40;;;;;;;22.34;47.95;99373.34;5133576;28;20490;-63
2022/05/08 06:16:16;;;;;;;1.52;1.13;;;;;;;22.32;47.77;99375.72;5133487;28;20035;-63
2022/05/08 06:18:43;;;;;;;2.47;1.67;;;;;;;22.33;48.18;99377.34;5133304;28;20043;-63
2022/05/08 06:21:08;;;;;;;1.60;1.23;;;;;;;22.34;48.13;99373.34;5133381;28;20039;-62
2022/05/08 06:23:34;;;;;;;1.98;1.13;;;;;;;22.35;48.16;99380.53;5133365;28;20537;-63
2022/05/08 06:25:59;;;;;;;1.95;1.40;;;;;;;22.35;47.85;99377.75;5133338;28;20078;-63
2022/05/08 06:28:24;;;;;;;1.98;1.30;;;;;;;22.34;47.83;99381.72;5133382;28;20116;-63
2022/05/08 06:30:50;;;;;;;1.98;1.30;;;;;;;22.35;47.83;99388.09;5133371;28;20521;-62
2022/05/08 06:33:15;;;;;;;1.80;1.33;;;;;;;22.35;48.13;99385.31;5133247;28;20087;-63
2022/05/08 06:35:41;;;;;;;2.25;1.50;;;;;;;22.36;47.96;99384.09;5133288;28;20599;-63
2022/05/08 06:38:10;;;;;;;1.63;1.13;;;;;;;22.35;47.93;99385.31;5133133;28;20059;-62
2022/05/08 06:40:39;;;;;;;1.83;1.30;;;;;;;22.35;48.11;99379.72;5133079;28;20046;-62
2022/05/08 06:43:06;;;;;;;1.65;1.10;;;;;;;22.35;47.88;99379.72;5132908;28;20076;-62
2022/05/08 06:45:32;;;;;;;1.40;1.10;;;;;;;22.36;47.74;99389.69;5133005;28;20047;-63
2022/05/08 06:47:58;;;;;;;1.90;1.45;;;;;;;22.37;47.89;99386.53;5133007;28;20100;-63
2022/05/08 06:50:23;;;;;;;1.63;1.13;;;;;;;22.39;47.84;99386.13;5133089;28;20604;-63
2022/05/08 06:52:49;;;;;;;1.52;1.10;;;;;;;22.37;47.98;99386.53;5133043;28;20470;-63
2022/05/08 06:55:14;;;;;;;1.70;1.30;;;;;;;22.38;47.76;99379.78;5132873;28;20125;-63
2022/05/08 06:57:40;;;;;;;2.13;1.38;;;;;;;22.37;47.78;99383.75;5132923;28;20559;-62
2022/05/08 07:02:50;;;;;;;1.70;1.23;;;;;;;22.37;47.88;99386.53;5132645;28;20279;-63
2022/05/08 07:05:16;;;;;;;2.25;1.40;;;;;;;22.37;47.66;99382.94;5131907;27;20224;-63
2022/05/08 07:07:42;;;;;;;2.80;1.30;;;;;;;22.38;47.54;99384.53;5132809;28;20054;-63
2022/05/08 07:10:08;;;;;;;2.53;1.67;;;;;;;22.39;47.65;99386.13;5132580;28;20471;-63
2022/05/08 07:12:36;;;;;;;2.33;1.27;;;;;;;22.38;47.59;99393.69;5132594;28;20519;-63
2022/05/08 07:15:03;;;;;;;1.90;1.30;;;;;;;22.39;47.23;99392.50;5132483;28;20043;-63
2022/05/08 07:17:29;;;;;;;2.00;1.50;;;;;;;22.41;47.33;99384.56;5132291;28;20035;-62
2022/05/08 07:19:55;;;;;;;2.13;1.60;;;;;;;22.39;47.37;99395.31;5132459;28;20074;-62
2022/05/08 07:22:21;;;;;;;1.70;1.20;;;;;;;22.40;47.43;99391.31;5132140;28;20121;-63
2022/05/08 07:24:47;;;;;;;1.58;1.13;;;;;;;22.41;47.29;99397.69;5132366;28;20131;-63
2022/05/08 07:27:12;;;;;;;1.90;1.38;;;;;;;22.41;47.19;99387.34;5132333;28;20089;-63
2022/05/08 07:29:41;;;;;;;2.13;1.45;;;;;;;22.41;47.11;99401.28;5132193;28;20169;-63
2022/05/08 07:32:07;;;;;;;1.80;1.30;;;;;;;22.41;47.12;99398.50;5132273;28;20465;-63
2022/05/08 07:37:16;;;;;;;1.83;1.50;;;;;;;22.40;47.24;99408.03;5132283;28;20046;-63
2022/05/08 07:39:41;;;;;;;1.98;1.45;;;;;;;22.41;47.26;99412.44;5132405;28;20043;-62
2022/05/08 07:42:07;;;;;;;2.00;1.45;;;;;;;22.42;47.27;99404.88;5131849;28;20041;-62
2022/05/08 07:44:32;;;;;;;1.80;1.25;;;;;;;22.42;47.14;99402.88;5132039;28;20100;-62
2022/05/08 07:46:57;;;;;;;2.30;1.70;;;;;;;22.42;46.92;99402.06;5131908;28;20513;-63
2022/05/08 07:49:23;;;;;;;1.88;1.35;;;;;;;22.44;46.95;99414.47;5131866;28;20038;-63
2022/05/08 07:51:48;;;;;;;2.17;1.50;;;;;;;22.44;46.84;99405.31;5131864;28;20054;-63
2022/05/08 07:54:14;;;;;;;1.70;1.30;;;;;;;22.42;46.92;99402.88;5131823;28;20489;-63
2022/05/08 07:56:39;;;;;;;1.88;1.38;;;;;;;22.42;47.03;99411.25;5131804;28;20047;-63
2022/05/08 07:59:04;;;;;;;2.00;1.48;;;;;;;22.43;46.85;99406.47;5131730;28;20060;-63
2022/05/08 08:01:30;;;;;;;2.15;1.48;;;;;;;22.45;46.88;99406.91;5131528;28;20035;-63
2022/05/08 08:03:58;;;;;;;2.05;1.33;;;;;;;22.45;46.99;99416.06;5131794;28;20073;-63
2022/05/08 08:06:24;;;;;;;1.92;1.40;;;;;;;22.44;46.67;99417.25;5131647;28;20414;-63
2022/05/08 08:08:49;;;;;;;2.15;1.55;;;;;;;22.47;46.85;99419.25;5131797;28;20039;-63
2022/05/08 08:11:15;;;;;;;2.15;1.63;;;;;;;22.45;46.85;99418.84;5131580;28;20048;-63
2022/05/08 08:13:40;;;;;;;2.30;1.45;;;;;;;22.47;46.89;99421.25;5131486;28;20582;-63
2022/05/08 08:16:07;;;;;;;2.20;1.40;;;;;;;22.49;46.70;99416.06;5131424;27;20105;-63
2022/05/08 08:18:32;;;;;;;1.88;1.30;;;;;;;22.49;46.78;99425.22;5131460;28;20062;-63
2022/05/08 08:20:58;;;;;;;2.55;1.80;;;;;;;22.50;46.83;99426.84;5131344;28;20429;-63
2022/05/08 08:23:23;;;;;;;2.25;1.70;;;;;;;22.49;46.88;99422.44;5131115;28;20043;-63
2022/05/08 08:25:49;;;;;;;2.17;1.60;;;;;;;22.50;46.69;99431.59;5131463;28;20039;-63
2022/05/08 08:28:14;;;;;;;2.30;1.70;;;;;;;22.52;46.76;99432.84;5131279;28;20047;-63
2022/05/08 08:30:40;;;;;;;1.80;1.35;;;;;;;22.51;46.57;99431.25;5131265;28;20034;-63
2022/05/08 08:33:05;;;;;;;2.33;1.65;;;;;;;22.52;46.70;99420.88;5131352;28;20389;-63
2022/05/08 08:35:31;;;;;;;2.50;1.60;;;;;;;22.52;46.74;99430.06;5131332;28;20402;-63
2022/05/08 08:37:56;;;;;;;1.90;1.38;;;;;;;22.55;46.79;99438.81;5131221;28;20423;-63
2022/05/08 08:40:22;;;;;;;2.42;1.58;;;;;;;22.53;46.72;99428.84;5130941;28;20088;-63
2022/05/08 08:42:49;;;;;;;2.00;1.40;;;;;;;22.55;47.00;99430.47;5130904;28;20115;-63
2022/05/08 08:48:09;;;;;;;1.98;1.38;;;;;;;22.54;46.88;99418.50;5130956;28;20054;-62
2022/05/08 08:50:34;;;;;;;2.38;1.50;;;;;;;22.55;46.71;99420.09;5131054;28;20548;-62
2022/05/08 08:53:02;;;;;;;2.10;1.50;;;;;;;22.56;46.62;99416.13;5130928;28;20043;-62
2022/05/08 08:55:28;;;;;;;1.98;1.42;;;;;;;22.56;46.69;99415.34;5131041;28;20084;-62
2022/05/08 08:57:54;;;;;;;2.00;1.50;;;;;;;22.58;46.94;99412.97;5131040;28;20051;-62
2022/05/08 09:00:21;;;;;;;2.20;1.55;;;;;;;22.59;46.88;99420.94;5131131;28;20467;-63
2022/05/08 09:02:47;;;;;;;2.45;1.52;;;;;;;22.60;46.80;99416.16;5130567;28;20495;-63
2022/05/08 09:05:13;;;;;;;1.70;1.25;;;;;;;22.62;46.71;99416.56;5130925;28;20525;-63
2022/05/08 09:07:49;;;;;;;2.00;1.40;;;;;;;22.60;46.99;99422.53;5128903;28;20138;-63
2022/05/08 09:10:15;;;;;;;2.17;1.60;;;;;;;22.62;46.92;99422.16;5130759;28;20122;-63
2022/05/08 09:12:42;;;;;;;2.40;1.50;;;;;;;22.63;46.68;99420.97;5130715;28;20134;-63
2022/05/08 09:15:25;;;;;;;1.90;1.40;;;;;;;22.64;46.79;99425.34;5130750;28;20035;-63
2022/05/08 09:17:56;;;;;;;2.10;1.30;;;;;;;22.64;46.83;99428.13;5112340;28;20426;-63
2022/05/08 09:20:43;;;;;;;1.88;1.38;;;;;;;22.65;46.83;99415.81;5130598;28;20035;-63
2022/05/08 09:23:16;;;;;;;2.42;1.70;;;;;;;22.63;46.96;99421.75;5130316;28;20081;-63
2022/05/08 09:25:54;;;;;;;1.98;1.45;;;;;;;22.61;47.06;99421.34;5130468;28;20054;-63
2022/05/08 09:28:22;;;;;;;1.90;1.50;;;;;;;22.59;47.25;99417.38;5132111;27;20460;-63
2022/05/08 09:31:15;;;;;;;2.17;1.58;;;;;;;22.59;46.97;99420.16;5137502;27;20073;-63
2022/05/08 09:33:45;;;;;;;2.45;1.70;;;;;;;22.59;46.93;99417.38;5137310;27;20055;-63
2022/05/08 09:36:25;;;;;;;2.22;1.70;;;;;;;22.56;46.98;99418.91;5137445;27;20414;-63
2022/05/08 09:38:58;;;;;;;2.15;1.58;;;;;;;22.55;47.04;99422.09;5134721;27;20044;-63
2022/05/08 09:41:30;;;;;;;2.50;1.60;;;;;;;22.55;46.96;99417.31;5137322;27;20043;-62
2022/05/08 09:44:14;;;;;;;2.38;1.55;;;;;;;22.53;47.02;99422.50;5136971;27;20235;-63
2022/05/08 09:46:43;;;;;;;2.20;1.70;;;;;;;22.53;46.97;99420.50;5135582;27;20092;-63
2022/05/08 09:49:21;;;;;;;2.30;1.60;;;;;;;22.50;46.92;99417.66;5137222;27;20059;-63
2022/05/08 09:51:47;;;;;;;2.40;1.70;;;;;;;22.52;47.35;99418.09;5137150;27;20515;-63
2022/05/08 09:54:15;;;;;;;2.00;1.45;;;;;;;22.52;47.28;99413.31;5137033;27;20510;-63
2022/05/08 09:56:42;;;;;;;2.10;1.50;;;;;;;22.51;47.39;99417.31;5136978;27;20068;-63
2022/05/08 09:59:09;;;;;;;2.05;1.58;;;;;;;22.51;47.29;99427.66;5137053;27;20034;-63
2022/05/08 10:01:34;;;;;;;2.47;1.67;;;;;;;22.52;47.46;99418.91;5136983;27;20047;-63
2022/05/08 10:04:00;;;;;;;1.83;1.40;;;;;;;22.52;47.19;99413.31;5136927;27;20459;-63
2022/05/08 10:06:28;;;;;;;2.33;1.70;;;;;;;22.49;47.18;99410.50;5137003;27;20043;-63
2022/05/08 10:13:53;;;;;;;1.90;1.40;;;;;;;22.49;47.20;99421.66;5136898;27;20088;-63
2022/05/08 10:14:30;;;;;;;2.33;1.67;;;;;;;22.52;46.69;99418.09;5136979;27;20134;-63
2022/05/08 10:17:02;;;;;;;2.30;1.70;;;;;;;22.51;46.81;99422.09;5136750;27;20043;-63
2022/05/08 10:19:27;;;;;;;2.00;1.50;;;;;;;22.52;46.88;99416.13;5136658;27;20054;-63
2022/05/08 10:21:53;;;;;;;2.58;1.90;;;;;;;22.52;47.01;99418.91;5136557;27;20047;-63
2022/05/08 10:24:27;;;;;;;2.20;1.65;;;;;;;22.51;47.12;99419.28;5136429;27;20051;-63
2022/05/08 10:27:17;;;;;;;2.10;1.60;;;;;;;22.51;47.25;99414.53;5136938;27;20050;-63
2022/05/08 10:29:54;;;;;;;1.92;1.52;;;;;;;22.52;47.21;99406.94;5136645;27;20053;-63
2022/05/08 10:32:32;;;;;;;2.40;1.63;;;;;;;22.52;46.91;99409.75;5136658;27;20070;-63
2022/05/08 10:35:11;;;;;;;2.35;1.60;;;;;;;22.51;47.24;99408.94;5136717;27;20035;-63
2022/05/08 10:37:51;;;;;;;2.00;1.50;;;;;;;22.52;47.18;99404.97;5136562;27;20038;-63
2022/05/08 10:40:23;;;;;;;1.90;1.40;;;;;;;22.53;47.10;99405.75;5133718;27;20958;-63
2022/05/08 10:43:00;;;;;;;2.20;1.50;;;;;;;22.52;47.10;99410.53;5132920;28;20046;-63
2022/05/08 10:45:32;;;;;;;2.17;1.40;;;;;;;22.53;46.65;99397.41;5133272;28;20138;-63
2022/05/08 10:48:03;;;;;;;2.13;1.63;;;;;;;22.54;46.91;99404.56;5133369;28;20047;-63
2022/05/08 10:50:29;;;;;;;2.13;1.60;;;;;;;22.53;46.79;99406.56;5132992;28;20051;-63
2022/05/08 10:52:54;;;;;;;2.03;1.45;;;;;;;22.53;47.02;99408.56;5132873;28;20407;-63
2022/05/08 10:55:19;;;;;;;2.22;1.73;;;;;;;22.53;46.91;99400.97;5132745;28;20048;-63
2022/05/08 10:57:48;;;;;;;2.63;1.58;;;;;;;22.53;47.12;99402.97;5132730;28;20123;-63
2022/05/08 11:00:18;;;;;;;2.08;1.30;;;;;;;22.53;46.98;99398.19;5132931;28;20071;-63
2022/05/08 11:02:43;;;;;;;2.25;1.70;;;;;;;22.55;47.10;99395.03;5132724;28;20070;-63
2022/05/08 11:05:19;;;;;;;2.20;1.50;;;;;;;22.55;46.92;99400.59;5132524;28;20058;-63
2022/05/08 11:07:55;;;;;;;2.30;1.55;;;;;;;22.54;47.18;99399.00;5132924;28;20054;-63
2022/05/08 11:10:28;;;;;;;2.15;1.63;;;;;;;22.54;47.27;99399.00;5132833;28;20515;-63
2022/05/08 11:12:54;;;;;;;;;;;;;;;22.58;47.43;99401.81;5133328;28;20059;-63
2022/05/08 11:15:19;;;;;;;2.40;1.77;;;;;;;22.58;47.52;99399.03;5132796;28;19916;-63
2022/05/08 11:17:45;;;;;;;2.50;1.85;;;;;;;22.58;47.38;99393.47;5132341;28;20046;-63
2022/05/08 11:20:15;;;;;;;2.15;1.52;;;;;;;22.57;47.24;99398.22;5132599;28;20410;-63
2022/05/08 11:22:53;;;;;;;2.53;1.85;;;;;;;22.57;47.33;99391.84;5132278;28;20039;-63
2022/05/08 11:25:19;;;;;;;2.55;1.60;;;;;;;22.59;47.20;99400.63;5132481;28;20089;-63
2022/05/08 11:27:53;;;;;;;2.42;1.73;;;;;;;22.58;47.16;99396.25;5132517;28;20078;-63
2022/05/08 11:30:32;;;;;;;1.90;1.55;;;;;;;22.60;47.15;99396.66;5132377;28;20073;-63
2022/05/08 11:36:11;;;;;;;2.20;1.60;;;;;;;22.60;47.56;99391.09;5132598;28;20096;-62
2022/05/08 11:38:42;;;;;;;2.00;1.38;;;;;;;22.59;47.42;99390.28;5110995;28;20050;-63
2022/05/08 11:41:09;;;;;;;1.92;1.33;;;;;;;22.58;47.60;99382.31;5132015;28;20503;-63
2022/05/08 11:43:43;;;;;;;2.00;1.60;;;;;;;22.61;47.30;99387.91;5132215;28;20043;-63
2022/05/08 11:46:10;;;;;;;2.20;1.60;;;;;;;22.60;47.41;99377.13;5132124;28;20039;-63
2022/05/08 11:48:37;;;;;;;2.40;1.70;;;;;;;22.61;47.21;99384.31;5132224;28;20043;-63
2022/05/08 11:51:05;;;;;;;2.38;1.70;;;;;;;22.62;47.43;99385.91;5131838;27;20051;-63
2022/05/08 11:53:46;;;;;;;1.90;1.42;;;;;;;22.63;47.65;99381.94;5131997;28;20035;-63
2022/05/08 11:56:28;;;;;;;2.50;1.83;;;;;;;22.62;47.18;99372.75;5132153;28;20538;-63
2022/05/08 11:58:56;;;;;;;2.27;1.60;;;;;;;22.63;47.26;99379.94;5132113;28;20047;-63
2022/05/08 12:01:32;;;;;;;2.20;1.70;;;;;;;22.63;47.37;99385.50;5132101;28;20138;-62
2022/05/08 12:04:27;;;;;;;2.00;1.52;;;;;;;22.65;47.37;99379.56;5131632;28;20062;-62